Seaside, Oregon
Current Conditions -  °F | °C
As of 11:55 PM on Sunday 21 Dec 2014 (Local Time) from KAST Reporting Station
Overcast Overcast  
Wind Chill: 50°   Ceiling: 5500
Heat Index: 50°   Visibility: 10mi
Dew Point: 48°   Wind: 5mph
Humidity: 93%   Direction: 300°WNW
Pressure: 30.19"   Gusts: NA
Location:  45.99°N, 123.91°W
Report Text: KAST 220755Z AUTO 30004KT 10SM SCT047 OVC055 10/09 A3019 RMK AO2 RAB0656E45 SLP221 P0012 T01000089 401330100 $
Loading
Personal Weather Stations






























Interactive Weather Map New forecast layout! Learn more

10-Day Weather Forecast

Advertisements
Track Severe Weather on mobile